Date,TemperatureHighF,TemperatureAvgF,TemperatureLowF,DewpointHighF,DewpointAvgF,DewpointLowF,HumidityHigh,HumidityAvg,HumidityLow,PressureMaxIn,PressureMinIn,WindSpeedMaxMPH,WindSpeedAvgMPH,GustSpeedMaxMPH,PrecipitationSumIn
2013-4-1,40.5,30.9,26.3,32.0,18.5,13.0,87,61,42,30.08,29.66,18,4,0,0.00
2013-4-2,38.9,30.4,22.6,21.0,16.4,13.0,88,59,36,30.24,30.08,15,4,0,0.00
2013-4-3,41.0,32.3,22.7,21.0,15.6,12.0,75,52,33,30.42,30.23,7,2,0,0.00
2013-4-4,53.7,40.2,29.0,24.0,17.3,-99.9,63,43,24,30.34,29.92,13,-7,0,0.00
2013-4-5,46.1,40.1,33.3,32.0,23.1,18.0,84,53,33,30.16,29.91,7,2,0,0.00
2013-4-6,48.7,38.8,31.0,30.0,24.2,17.0,77,57,40,30.21,29.75,23,11,0,0.00
2013-4-7,56.9,47.1,37.5,47.0,36.6,29.0,82,68,42,29.99,29.57,21,6,0,0.01
2013-4-8,63.3,44.5,35.6,55.0,40.0,32.0,94,85,61,29.99,29.66,33,8,0,0.16
2013-4-9,50.5,44.9,39.8,46.0,42.7,39.0,97,92,83,30.05,29.84,13,4,0,0.72
2013-4-10,44.0,40.5,37.5,43.0,39.6,37.0,100,96,95,29.96,29.82,12,3,0,0.37
2013-4-11,37.8,36.6,35.7,37.0,35.7,34.0,97,96,94,29.97,29.62,16,7,0,0.82
2013-4-12,40.9,37.5,33.8,39.0,35.2,33.0,97,91,78,29.73,29.51,18,6,0,0.28
2013-4-13,39.9,37.4,35.0,38.0,31.8,29.0,93,80,68,29.96,29.73,21,10,0,0.01
2013-4-14,46.3,38.8,32.8,38.0,33.0,28.0,93,80,71,30.09,29.90,12,5,0,0.02
2013-4-15,65.4,54.4,40.9,56.0,46.6,35.0,92,75,64,29.93,29.83,20,8,0,0.03
2013-4-16,60.7,51.7,45.2,55.0,42.7,36.0,95,74,46,30.18,29.82,14,3,0,0.07
2013-4-17,56.4,46.6,38.6,44.0,36.3,32.0,94,69,49,30.30,29.98,23,6,0,0.74
2013-4-18,74.1,57.7,43.4,65.0,54.8,42.0,96,90,73,29.98,29.49,30,10,0,0.41
2013-4-19,58.2,42.1,32.6,57.0,33.7,-99.9,97,81,70,29.71,29.26,27,-29,0,0.54
2013-4-20,33.8,31.4,28.4,31.0,24.1,18.0,93,75,62,30.06,29.71,21,7,0,0.00
2013-4-23,-200.0,0.0,200.0,-99.9,-99.9,-99.9,0,0,100,0.00,40.00,0,-999,0,0.00